Time;durP1;ratioP1;P1;durP2;ratioP2;P2;SDS_P1;SDS_P2;PMS_P1;PMS_P2;Temp;Humidity;BMP_temperature;BMP_pressure;BME280_temperature;BME280_humidity;BME280_pressure;Samples;Min_cycle;Max_cycle;Signal;HPM_P1;HPM_P2
2023/04/07 00:01:08;;;;;;;4.13;2.50;;;8.70;98.00;;;;;;5032304;28;20462;-66
2023/04/07 00:03:39;;;;;;;4.10;2.43;;;8.70;98.00;;;;;;5030761;28;21011;-66
2023/04/07 00:06:07;;;;;;;7.03;3.13;;;8.70;98.00;;;;;;5032073;28;20961;-66
2023/04/07 00:08:38;;;;;;;4.63;2.20;;;8.80;98.00;;;;;;5031764;28;20487;-66
2023/04/07 00:11:07;;;;;;;4.27;2.83;;;8.70;98.00;;;;;;5032015;28;20474;-67
2023/04/07 00:13:34;;;;;;;3.90;2.10;;;8.70;98.00;;;;;;5031977;28;20463;-66
2023/04/07 00:16:01;;;;;;;4.33;2.20;;;8.60;98.00;;;;;;5031888;28;20501;-66
2023/04/07 00:18:28;;;;;;;4.03;2.40;;;8.60;98.00;;;;;;5030991;28;20746;-66
2023/04/07 00:20:59;;;;;;;2.17;2.00;;;8.60;98.00;;;;;;5032241;28;20458;-66
2023/04/07 00:23:27;;;;;;;10.13;2.10;;;8.70;98.00;;;;;;5031758;28;20520;-66
2023/04/07 00:25:55;;;;;;;3.63;2.27;;;8.60;98.00;;;;;;5031766;28;20452;-67
2023/04/07 00:28:22;;;;;;;8.40;2.50;;;8.70;98.00;;;;;;5031730;28;20490;-66
2023/04/07 00:30:50;;;;;;;4.47;2.10;;;8.70;98.00;;;;;;5031928;28;20458;-65
2023/04/07 00:33:17;;;;;;;3.60;2.20;;;8.60;98.00;;;;;;5031980;28;20465;-66
2023/04/07 00:35:44;;;;;;;8.47;2.13;;;8.50;98.00;;;;;;5031633;28;20469;-67
2023/04/07 00:38:12;;;;;;;4.00;2.10;;;8.50;98.00;;;;;;5031699;28;20909;-66
2023/04/07 00:40:39;;;;;;;4.07;1.90;;;8.50;98.00;;;;;;5031319;28;20465;-66
2023/04/07 00:43:06;;;;;;;3.63;2.17;;;8.40;98.00;;;;;;5031708;28;20775;-67
2023/04/07 00:45:33;;;;;;;3.03;1.90;;;8.30;98.00;;;;;;5031456;28;20448;-66
2023/04/07 00:48:01;;;;;;;4.57;2.27;;;8.20;98.00;;;;;;5031260;28;20485;-65
2023/04/07 00:50:28;;;;;;;4.20;2.20;;;8.20;98.00;;;;;;5031650;28;20465;-66
2023/04/07 00:52:55;;;;;;;4.20;2.30;;;8.20;98.00;;;;;;5031123;28;20460;-67
2023/04/07 00:55:24;;;;;;;3.33;2.07;;;8.20;98.00;;;;;;5031211;28;20464;-66
2023/04/07 00:57:52;;;;;;;3.70;2.47;;;8.20;98.00;;;;;;5031254;28;20599;-66
2023/04/07 01:00:19;;;;;;;2.80;1.87;;;8.10;98.00;;;;;;5031440;28;20943;-66
2023/04/07 01:02:55;;;;;;;3.87;1.97;;;8.10;98.00;;;;;;5030975;28;20473;-67
2023/04/07 01:05:29;;;;;;;7.83;2.20;;;8.20;98.00;;;;;;5030928;28;20448;-67
2023/04/07 01:08:06;;;;;;;3.30;1.90;;;8.30;98.00;;;;;;5031081;28;20881;-67
2023/04/07 01:10:41;;;;;;;4.17;2.07;;;8.30;98.00;;;;;;5031255;28;20454;-66
2023/04/07 01:13:13;;;;;;;2.63;1.80;;;8.30;98.00;;;;;;5031165;28;20483;-66
2023/04/07 01:15:42;;;;;;;2.93;2.00;;;8.30;98.00;;;;;;5031182;28;20449;-65
2023/04/07 01:18:15;;;;;;;4.57;2.40;;;8.30;98.00;;;;;;5031162;28;20555;-66
2023/04/07 01:20:45;;;;;;;3.93;1.73;;;8.40;98.00;;;;;;5030909;28;21013;-66
2023/04/07 01:23:23;;;;;;;4.73;2.77;;;8.30;98.00;;;;;;5031148;28;20462;-67
2023/04/07 01:26:07;;;;;;;4.37;2.30;;;8.20;98.00;;;;;;5031223;28;20460;-66
2023/04/07 01:29:07;;;;;;;4.03;2.27;;;8.20;98.00;;;;;;5031418;28;20573;-66
2023/04/07 01:31:39;;;;;;;3.10;2.10;;;8.10;98.00;;;;;;5035265;28;20458;-66
2023/04/07 01:34:10;;;;;;;3.00;1.90;;;8.10;98.00;;;;;;5035260;28;20941;-66
2023/04/07 01:36:38;;;;;;;2.23;1.87;;;8.00;98.00;;;;;;5035044;28;20553;-66
2023/04/07 01:39:06;;;;;;;4.10;2.27;;;8.10;98.00;;;;;;5035019;28;20456;-65
2023/04/07 01:41:34;;;;;;;5.33;2.00;;;8.10;98.00;;;;;;5034985;28;20508;-67
2023/04/07 01:44:02;;;;;;;4.60;2.43;;;8.10;98.00;;;;;;5034883;28;20866;-67
2023/04/07 01:46:29;;;;;;;4.47;2.07;;;8.20;98.00;;;;;;5034662;28;20509;-67
2023/04/07 01:48:58;;;;;;;3.27;2.10;;;8.30;98.00;;;;;;5034645;28;20485;-66
2023/04/07 01:51:28;;;;;;;4.83;2.40;;;8.20;98.00;;;;;;5034631;28;20454;-67
2023/04/07 01:53:56;;;;;;;4.33;2.07;;;8.20;98.00;;;;;;5034510;28;20868;-66
2023/04/07 01:56:23;;;;;;;5.30;2.57;;;8.30;98.00;;;;;;5034436;28;20465;-65
2023/04/07 01:58:50;;;;;;;4.90;2.60;;;8.20;98.00;;;;;;5034627;28;20447;-65
2023/04/07 02:01:17;;;;;;;6.37;3.03;;;8.10;98.00;;;;;;5034582;28;20465;-66
2023/04/07 02:03:50;;;;;;;4.57;2.03;;;8.10;98.00;;;;;;5034345;28;20524;-67
2023/04/07 02:06:22;;;;;;;4.90;1.83;;;8.10;98.00;;;;;;5034351;28;20524;-66
2023/04/07 02:08:53;;;;;;;7.77;2.47;;;8.00;98.00;;;;;;5033846;28;20482;-67
2023/04/07 02:11:22;;;;;;;4.60;2.23;;;8.00;98.00;;;;;;5034447;28;20477;-66
2023/04/07 02:13:51;;;;;;;5.73;2.57;;;7.90;98.00;;;;;;5034621;28;20933;-66
2023/04/07 02:16:20;;;;;;;4.97;2.90;;;7.80;98.00;;;;;;5034482;28;20462;-66
2023/04/07 02:18:48;;;;;;;4.50;2.30;;;7.80;98.00;;;;;;5034150;28;20828;-67
2023/04/07 02:21:17;;;;;;;6.33;2.50;;;7.90;98.00;;;;;;5034639;28;20463;-66
2023/04/07 02:23:49;;;;;;;5.53;2.73;;;7.90;98.00;;;;;;5033861;28;20450;-66
2023/04/07 02:26:16;;;;;;;3.90;2.13;;;7.80;98.00;;;;;;5034389;28;21035;-66
2023/04/07 02:28:43;;;;;;;3.90;2.47;;;7.80;98.00;;;;;;5035290;28;20490;-66
2023/04/07 02:31:12;;;;;;;6.30;2.53;;;7.80;98.00;;;;;;5034131;28;20454;-66
2023/04/07 02:33:39;;;;;;;6.07;2.53;;;7.70;98.00;;;;;;5034252;28;20481;-66
2023/04/07 02:36:06;;;;;;;4.70;2.70;;;7.80;98.00;;;;;;5033910;28;20459;-66
2023/04/07 02:38:33;;;;;;;6.50;2.07;;;7.80;98.00;;;;;;5034185;28;20455;-67
2023/04/07 02:41:02;;;;;;;8.63;2.93;;;7.80;98.00;;;;;;5032645;28;20870;-66
2023/04/07 02:43:29;;;;;;;4.60;2.43;;;7.80;98.00;;;;;;5032599;28;20458;-66
2023/04/07 02:45:57;;;;;;;6.00;2.60;;;7.70;98.00;;;;;;5032711;28;20664;-66
2023/04/07 02:48:24;;;;;;;4.60;2.97;;;7.70;98.00;;;;;;5033614;28;20489;-66
2023/04/07 02:50:52;;;;;;;4.87;2.40;;;7.70;98.00;;;;;;5032527;28;20467;-66
2023/04/07 02:53:19;;;;;;;7.33;3.10;;;7.60;98.00;;;;;;5033898;28;20467;-68
2023/04/07 02:55:46;;;;;;;4.57;2.40;;;7.60;98.00;;;;;;5033307;28;20459;-66
2023/04/07 02:58:15;;;;;;;4.40;2.50;;;7.60;98.00;;;;;;5033550;28;20455;-66
2023/04/07 03:00:41;;;;;;;4.60;2.50;;;7.50;98.00;;;;;;5033293;28;21018;-67
2023/04/07 03:03:09;;;;;;;5.20;2.30;;;7.40;98.00;;;;;;5033358;28;20888;-66
2023/04/07 03:05:36;;;;;;;3.50;2.10;;;7.40;98.00;;;;;;5032200;28;20459;-66
2023/04/07 03:08:03;;;;;;;4.10;2.57;;;7.50;98.00;;;;;;5033189;28;20486;-67
2023/04/07 03:10:30;;;;;;;4.87;2.40;;;7.40;98.00;;;;;;5033297;28;20478;-66
2023/04/07 03:12:57;;;;;;;3.60;2.30;;;7.50;98.00;;;;;;5033012;28;20462;-67
2023/04/07 03:15:25;;;;;;;7.47;3.00;;;7.60;98.00;;;;;;5033107;28;20463;-67
2023/04/07 03:17:52;;;;;;;5.93;3.00;;;7.60;98.00;;;;;;5032885;28;20516;-67
2023/04/07 03:20:22;;;;;;;5.87;2.90;;;7.70;98.00;;;;;;5033158;28;20460;-66
2023/04/07 03:22:49;;;;;;;3.10;2.30;;;7.80;98.00;;;;;;5033093;28;20461;-66
2023/04/07 03:25:25;;;;;;;4.13;2.50;;;7.90;98.00;;;;;;5033036;28;20447;-66
2023/04/07 03:27:52;;;;;;;3.23;1.90;;;8.00;98.00;;;;;;5032784;28;20494;-66
2023/04/07 03:30:19;;;;;;;4.30;2.00;;;8.00;98.00;;;;;;5033270;28;20860;-67
2023/04/07 03:32:48;;;;;;;4.07;2.27;;;7.90;98.00;;;;;;5032906;28;20521;-66
2023/04/07 03:35:15;;;;;;;5.33;2.87;;;8.00;98.00;;;;;;5033020;28;20973;-67
2023/04/07 03:37:42;;;;;;;2.90;2.00;;;8.00;98.00;;;;;;5032571;28;21022;-66
2023/04/07 03:40:10;;;;;;;5.33;2.60;;;7.90;98.00;;;;;;5032578;28;20514;-66
2023/04/07 03:42:37;;;;;;;3.97;2.73;;;7.80;98.00;;;;;;5032645;28;20457;-67
2023/04/07 03:45:05;;;;;;;6.20;2.97;;;7.80;98.00;;;;;;5032547;28;20458;-66
2023/04/07 03:47:32;;;;;;;4.37;2.20;;;7.80;98.00;;;;;;5032659;28;20458;-65
2023/04/07 03:50:07;;;;;;;3.80;2.40;;;7.80;98.00;;;;;;5032703;28;20458;-68
2023/04/07 03:52:34;;;;;;;4.33;2.33;;;7.70;98.00;;;;;;5032310;28;20515;-66
2023/04/07 03:55:01;;;;;;;5.40;2.20;;;7.60;98.00;;;;;;5032250;28;20461;-65
2023/04/07 03:57:28;;;;;;;4.67;2.50;;;7.60;98.00;;;;;;5032382;28;20462;-67
2023/04/07 03:59:55;;;;;;;3.33;2.27;;;7.60;98.00;;;;;;5032130;28;20513;-66
2023/04/07 04:02:22;;;;;;;3.90;2.30;;;7.50;98.00;;;;;;5030891;28;20520;-65
2023/04/07 04:04:49;;;;;;;7.00;2.60;;;7.60;98.00;;;;;;5032189;28;20462;-66
2023/04/07 04:07:18;;;;;;;4.80;2.43;;;7.70;98.00;;;;;;5032233;28;20521;-67
2023/04/07 04:09:46;;;;;;;3.70;2.37;;;7.80;98.00;;;;;;5032184;28;20483;-66
2023/04/07 04:12:13;;;;;;;5.37;2.30;;;7.70;98.00;;;;;;5032368;28;20497;-66
2023/04/07 04:14:41;;;;;;;5.57;3.10;;;7.60;98.00;;;;;;5032000;28;20527;-66
2023/04/07 04:17:09;;;;;;;4.97;2.63;;;7.60;98.00;;;;;;5031691;28;20520;-66
2023/04/07 04:19:36;;;;;;;4.20;2.73;;;7.70;98.00;;;;;;5031750;28;20455;-66
2023/04/07 04:22:03;;;;;;;5.07;2.83;;;7.80;98.00;;;;;;5031997;28;20540;-67
2023/04/07 04:24:32;;;;;;;3.47;2.27;;;7.70;98.00;;;;;;5031912;28;20458;-66
2023/04/07 04:27:01;;;;;;;7.53;2.40;;;7.70;98.00;;;;;;5031614;28;20462;-66
2023/04/07 04:29:28;;;;;;;3.43;2.13;;;7.70;98.00;;;;;;5031862;28;20570;-66
2023/04/07 04:31:55;;;;;;;5.87;2.40;;;7.90;98.00;;;;;;5031910;28;20507;-67
2023/04/07 04:34:22;;;;;;;4.20;2.30;;;8.00;98.00;;;;;;5031852;28;20455;-67
2023/04/07 04:36:50;;;;;;;6.93;3.07;;;8.10;98.00;;;;;;5031629;28;20874;-66
2023/04/07 04:39:17;;;;;;;5.47;2.87;;;7.90;98.00;;;;;;5031682;28;20446;-67
2023/04/07 04:41:46;;;;;;;5.23;3.30;;;7.70;98.00;;;;;;5030471;28;20459;-66
2023/04/07 04:44:29;;;;;;;3.03;2.03;;;7.50;98.00;;;;;;5031430;28;20505;-67
2023/04/07 04:46:56;;;;;;;4.00;2.50;;;7.60;98.00;;;;;;5031417;28;20455;-65
2023/04/07 04:49:23;;;;;;;5.87;2.80;;;7.60;98.00;;;;;;5031515;28;20560;-65
2023/04/07 04:51:50;;;;;;;9.73;4.13;;;7.50;98.00;;;;;;5031496;28;20453;-66
2023/04/07 04:54:20;;;;;;;8.03;3.67;;;7.60;98.00;;;;;;5031261;28;20501;-66
2023/04/07 04:56:49;;;;;;;5.20;3.07;;;7.70;98.00;;;;;;5031260;28;20547;-68
2023/04/07 04:59:16;;;;;;;4.50;2.83;;;7.60;98.00;;;;;;5031457;28;20455;-67
2023/04/07 05:01:43;;;;;;;4.80;2.60;;;7.60;98.00;;;;;;5031097;28;20521;-65
2023/04/07 05:04:10;;;;;;;7.20;3.30;;;7.80;98.00;;;;;;5030471;28;20894;-67
2023/04/07 05:06:39;;;;;;;5.23;2.70;;;7.90;98.00;;;;;;5031202;28;20494;-66
2023/04/07 05:09:06;;;;;;;3.43;2.40;;;7.90;98.00;;;;;;5031408;28;20493;-66
2023/04/07 05:11:33;;;;;;;7.80;3.10;;;8.00;98.00;;;;;;5031276;28;20459;-65
2023/04/07 05:14:02;;;;;;;6.20;3.00;;;8.00;98.00;;;;;;5030131;28;20968;-66
2023/04/07 05:16:29;;;;;;;4.90;2.60;;;7.90;98.00;;;;;;5031111;28;20462;-66
2023/04/07 05:18:56;;;;;;;5.00;2.93;;;7.90;98.00;;;;;;5031301;28;20868;-65
2023/04/07 05:21:23;;;;;;;7.70;3.10;;;7.80;98.00;;;;;;5031141;28;20465;-67
2023/04/07 05:23:51;;;;;;;4.43;2.40;;;7.70;98.00;;;;;;5031576;28;20544;-66
2023/04/07 05:26:18;;;;;;;4.30;2.60;;;7.70;98.00;;;;;;5031129;28;20492;-66
2023/04/07 05:28:45;;;;;;;5.53;2.53;;;7.80;98.00;;;;;;5031471;28;20540;-67
2023/04/07 05:31:14;;;;;;;4.87;2.13;;;7.70;98.00;;;;;;5031278;28;20869;-66
2023/04/07 05:33:41;;;;;;;5.57;3.13;;;7.70;98.00;;;;;;5031074;28;20451;-67
2023/04/07 05:36:10;;;;;;;6.80;2.57;;;7.70;98.00;;;;;;5031070;28;20467;-66
2023/04/07 05:38:37;;;;;;;5.40;2.63;;;7.80;98.00;;;;;;5031043;28;20452;-65
2023/04/07 05:41:04;;;;;;;4.57;2.30;;;7.80;98.00;;;;;;5029706;28;20460;-67
2023/04/07 05:43:31;;;;;;;6.27;3.50;;;7.80;98.00;;;;;;5030554;28;20632;-66
2023/04/07 05:45:58;;;;;;;7.57;2.80;;;8.00;98.00;;;;;;5031228;28;20504;-66
2023/04/07 05:48:28;;;;;;;4.30;2.40;;;8.10;98.00;;;;;;5030987;28;20897;-66
2023/04/07 05:50:55;;;;;;;8.27;3.00;;;8.10;98.00;;;;;;5030891;28;20457;-66
2023/04/07 05:53:22;;;;;;;4.13;2.40;;;8.10;98.00;;;;;;5029887;28;20446;-66
2023/04/07 05:55:49;;;;;;;5.27;2.77;;;8.10;98.00;;;;;;5030725;28;20988;-67
2023/04/07 05:58:17;;;;;;;5.70;3.13;;;8.10;98.00;;;;;;5029786;28;20458;-66
2023/04/07 06:00:44;;;;;;;4.90;3.07;;;8.20;98.00;;;;;;5030664;28;20465;-66
2023/04/07 06:03:11;;;;;;;9.43;3.27;;;8.30;98.00;;;;;;5030594;28;20524;-64
2023/04/07 06:05:42;;;;;;;7.70;2.50;;;8.20;98.00;;;;;;5029541;28;20883;-65
2023/04/07 06:08:09;;;;;;;2.63;2.00;;;8.20;98.00;;;;;;5030589;28;20980;-66
2023/04/07 06:10:36;;;;;;;5.27;2.60;;;8.10;98.00;;;;;;5030671;28;20524;-65
2023/04/07 06:13:03;;;;;;;4.90;2.70;;;8.10;98.00;;;;;;5030798;28;21009;-66
2023/04/07 06:15:31;;;;;;;7.50;3.10;;;8.20;98.00;;;;;;5032565;28;20575;-65
2023/04/07 06:17:58;;;;;;;7.70;3.27;;;8.20;98.00;;;;;;5016753;28;20512;-65
2023/04/07 06:20:26;;;;;;;6.90;3.40;;;8.40;98.00;;;;;;5033896;28;20466;-64
2023/04/07 06:22:55;;;;;;;5.13;2.73;;;8.50;98.00;;;;;;5033980;28;20538;-67
2023/04/07 06:25:22;;;;;;;6.27;2.90;;;8.40;98.00;;;;;;5034352;28;20459;-66
2023/04/07 06:27:49;;;;;;;5.43;3.03;;;8.40;98.00;;;;;;5034314;28;20457;-65
2023/04/07 06:30:16;;;;;;;4.27;2.80;;;8.40;98.00;;;;;;5034138;28;20474;-65
2023/04/07 06:32:43;;;;;;;4.50;2.33;;;8.40;98.00;;;;;;5033838;28;20465;-65
2023/04/07 06:35:10;;;;;;;7.70;3.33;;;8.40;98.00;;;;;;5033966;28;20454;-65
2023/04/07 06:37:38;;;;;;;6.37;2.93;;;8.50;98.00;;;;;;5034038;28;20454;-65
2023/04/07 06:40:08;;;;;;;6.73;2.93;;;8.60;98.00;;;;;;5034143;28;20460;-65
2023/04/07 06:42:35;;;;;;;7.17;2.77;;;8.80;98.00;;;;;;5034091;28;20504;-68
2023/04/07 06:45:02;;;;;;;5.50;2.50;;;8.80;98.00;;;;;;5032819;28;20844;-65
2023/04/07 06:47:31;;;;;;;7.90;3.27;;;8.80;98.00;;;;;;5033578;28;20545;-67
2023/04/07 06:49:58;;;;;;;6.90;3.40;;;8.80;98.00;;;;;;5032543;28;20483;-66
2023/04/07 06:52:25;;;;;;;6.17;2.97;;;8.90;98.00;;;;;;5033366;28;20455;-65
2023/04/07 06:54:52;;;;;;;5.27;3.10;;;9.00;98.00;;;;;;5032319;28;20515;-65
2023/04/07 06:57:20;;;;;;;4.70;2.80;;;9.20;98.00;;;;;;5033649;28;20450;-66
2023/04/07 06:59:47;;;;;;;6.97;3.10;;;9.30;98.00;;;;;;5033415;28;20469;-65
2023/04/07 07:02:14;;;;;;;11.00;3.00;;;9.40;98.00;;;;;;5033210;28;20473;-65
2023/04/07 07:04:45;;;;;;;7.33;3.50;;;9.30;98.00;;;;;;5033432;28;20495;-64
2023/04/07 07:07:12;;;;;;;4.10;2.70;;;9.20;98.00;;;;;;5033459;28;20513;-66
2023/04/07 07:09:39;;;;;;;6.83;3.10;;;9.00;98.00;;;;;;5031872;28;20487;-65
2023/04/07 07:12:07;;;;;;;8.83;3.67;;;9.00;98.00;;;;;;5032160;28;20470;-65
2023/04/07 07:14:36;;;;;;;8.50;3.10;;;9.20;98.00;;;;;;5033212;28;20522;-65
2023/04/07 07:17:03;;;;;;;6.00;3.10;;;9.30;98.00;;;;;;5033179;28;20455;-66
2023/04/07 07:19:30;;;;;;;6.53;3.30;;;9.40;98.00;;;;;;5033421;28;20475;-65
2023/04/07 07:21:59;;;;;;;9.73;3.70;;;9.50;98.00;;;;;;5033447;28;20972;-66
2023/04/07 07:24:28;;;;;;;7.33;3.60;;;9.40;98.00;;;;;;5033028;28;20520;-64
2023/04/07 07:26:55;;;;;;;5.13;3.20;;;9.40;98.00;;;;;;5032654;28;20554;-65
2023/04/07 07:29:22;;;;;;;4.77;2.53;;;9.40;98.00;;;;;;5033132;28;20494;-65
2023/04/07 07:31:51;;;;;;;6.57;3.53;;;9.60;98.00;;;;;;5031269;28;20460;-64
2023/04/07 07:34:18;;;;;;;9.33;4.10;;;9.70;98.00;;;;;;5032625;28;20460;-66
2023/04/07 07:36:45;;;;;;;8.43;3.40;;;9.80;98.00;;;;;;5033227;28;20455;-65
2023/04/07 07:39:14;;;;;;;5.53;3.40;;;9.80;98.00;;;;;;5032668;28;20523;-65
2023/04/07 07:41:41;;;;;;;9.10;3.90;;;9.90;98.00;;;;;;5032700;28;20461;-66
2023/04/07 07:44:12;;;;;;;11.77;3.70;;;10.00;98.00;;;;;;5032546;28;20970;-66
2023/04/07 07:46:41;;;;;;;7.63;4.13;;;10.10;98.00;;;;;;5032410;28;20965;-64
2023/04/07 07:49:09;;;;;;;7.70;4.23;;;10.20;98.00;;;;;;5032722;28;20559;-64
2023/04/07 07:51:37;;;;;;;4.23;2.70;;;10.20;98.00;;;;;;5032625;28;20541;-63
2023/04/07 07:54:04;;;;;;;9.50;3.53;;;10.10;98.00;;;;;;5032483;28;20880;-63
2023/04/07 07:56:31;;;;;;;5.63;3.03;;;10.20;98.00;;;;;;5032360;28;20516;-65
2023/04/07 07:58:58;;;;;;;10.90;3.80;;;10.20;98.00;;;;;;5032616;28;20465;-63
2023/04/07 08:01:25;;;;;;;11.67;4.47;;;10.20;98.00;;;;;;5033508;28;20470;-64
2023/04/07 08:03:53;;;;;;;7.37;3.70;;;10.10;98.00;;;;;;5032250;28;20473;-64
2023/04/07 08:06:21;;;;;;;10.10;4.37;;;10.20;98.00;;;;;;5033280;28;20458;-63
2023/04/07 08:08:48;;;;;;;6.80;2.97;;;10.30;98.00;;;;;;5032551;28;20679;-62
2023/04/07 08:11:15;;;;;;;7.77;3.83;;;10.40;98.00;;;;;;5032173;28;20517;-64
2023/04/07 08:13:45;;;;;;;7.30;3.67;;;10.40;98.00;;;;;;5032048;28;20515;-64
2023/04/07 08:16:12;;;;;;;11.40;4.10;;;10.40;98.00;;;;;;5032090;28;20961;-66
2023/04/07 08:18:41;;;;;;;11.50;4.87;;;10.50;98.00;;;;;;5032068;28;20455;-64
2023/04/07 08:21:08;;;;;;;9.67;4.27;;;10.90;98.00;;;;;;5032092;28;20875;-63
2023/04/07 08:23:36;;;;;;;14.20;4.70;;;11.00;98.00;;;;;;5031844;28;20514;-65
2023/04/07 08:26:04;;;;;;;7.80;3.63;;;11.20;98.00;;;;;;5032104;28;20464;-62
2023/04/07 08:28:31;;;;;;;8.23;3.50;;;11.20;98.00;;;;;;5032182;28;20531;-63
2023/04/07 08:30:58;;;;;;;8.90;4.03;;;11.30;98.00;;;;;;5030788;28;20487;-63
2023/04/07 08:33:26;;;;;;;7.23;3.50;;;11.60;98.00;;;;;;5030552;28;20459;-64
2023/04/07 08:35:55;;;;;;;10.13;4.10;;;11.80;98.00;;;;;;5031740;28;20450;-63
2023/04/07 08:38:22;;;;;;;8.30;3.97;;;12.00;98.00;;;;;;5030776;28;20464;-63
2023/04/07 08:40:59;;;;;;;2.80;2.30;;;12.20;98.00;;;;;;5031493;28;20877;-62
2023/04/07 08:43:28;;;;;;;7.30;3.00;;;12.50;98.00;;;;;;5025265;28;20460;-64
2023/04/07 08:45:59;;;;;;;6.23;2.80;;;12.70;98.00;;;;;;5031191;28;20509;-63
2023/04/07 08:48:32;;;;;;;6.00;2.80;;;12.90;98.00;;;;;;5031378;28;20545;-64
2023/04/07 08:51:04;;;;;;;9.27;3.47;;;12.90;98.00;;;;;;5030105;28;20530;-65
2023/04/07 08:53:37;;;;;;;6.70;2.93;;;12.90;98.00;;;;;;5031323;28;20467;-65
2023/04/07 08:56:07;;;;;;;4.57;2.77;;;12.90;98.00;;;;;;5030947;28;20936;-63
2023/04/07 08:58:36;;;;;;;5.17;2.57;;;13.00;98.00;;;;;;5031205;28;20458;-64
2023/04/07 09:01:05;;;;;;;7.00;3.00;;;13.30;98.00;;;;;;5031161;28;20508;-65
2023/04/07 09:03:33;;;;;;;3.47;2.30;;;13.50;98.00;;;;;;5030990;28;20468;-65
2023/04/07 09:06:01;;;;;;;8.00;2.93;;;14.10;98.00;;;;;;5030985;28;20524;-65
2023/04/07 09:08:29;;;;;;;3.80;2.10;;;14.60;98.00;;;;;;5029955;28;20457;-67
2023/04/07 09:10:57;;;;;;;4.03;2.53;;;15.00;98.00;;;;;;5029814;28;20494;-65
2023/04/07 09:13:27;;;;;;;6.03;3.30;;;15.50;98.00;;;;;;5031167;28;20463;-63
2023/04/07 09:15:55;;;;;;;5.53;2.90;;;15.70;98.00;;;;;;5031033;28;20466;-64
2023/04/07 09:18:22;;;;;;;8.90;2.77;;;15.40;98.00;;;;;;5031208;28;20953;-65
2023/04/07 09:20:59;;;;;;;8.00;3.43;;;15.10;98.00;;;;;;5031064;28;20799;-63
2023/04/07 09:23:30;;;;;;;4.73;2.90;;;14.80;98.00;;;;;;5031170;28;20467;-63
2023/04/07 09:25:59;;;;;;;7.30;3.40;;;14.50;98.00;;;;;;5031108;28;20464;-63
2023/04/07 09:28:40;;;;;;;6.03;3.23;;;14.10;98.00;;;;;;5028043;28;20639;-64
2023/04/07 09:31:08;;;;;;;6.47;2.80;;;14.00;98.00;;;;;;5011519;28;20565;-64
2023/04/07 09:33:36;;;;;;;10.33;3.30;;;13.90;98.00;;;;;;5011143;28;20469;-64
2023/04/07 09:36:05;;;;;;;3.90;2.63;;;13.90;98.00;;;;;;5027975;28;20854;-63
2023/04/07 09:38:36;;;;;;;5.47;2.80;;;13.90;98.00;;;;;;5030980;28;20508;-63
2023/04/07 09:41:08;;;;;;;6.73;3.07;;;13.90;98.00;;;;;;5031266;28;20511;-64
2023/04/07 09:43:39;;;;;;;5.73;2.70;;;13.90;98.00;;;;;;5030889;28;20486;-64
2023/04/07 09:46:10;;;;;;;6.70;3.77;;;13.90;98.00;;;;;;5030941;28;20821;-64
2023/04/07 09:48:38;;;;;;;8.53;3.07;;;13.80;98.00;;;;;;5030766;28;20546;-63
2023/04/07 09:51:08;;;;;;;4.77;2.70;;;13.90;98.00;;;;;;5033595;28;20569;-64
2023/04/07 09:53:43;;;;;;;4.73;2.83;;;13.90;98.00;;;;;;5034605;28;20506;-64
2023/04/07 09:56:11;;;;;;;5.47;2.80;;;13.90;98.00;;;;;;5034849;28;20452;-63
2023/04/07 09:58:40;;;;;;;5.20;2.63;;;14.00;98.00;;;;;;5034359;28;20991;-65
2023/04/07 10:01:09;;;;;;;4.97;2.67;;;14.00;98.00;;;;;;5034640;28;20466;-63
2023/04/07 10:03:38;;;;;;;4.70;2.70;;;14.00;98.00;;;;;;5034140;28;20465;-64
2023/04/07 10:06:06;;;;;;;6.20;2.90;;;13.90;98.00;;;;;;5033326;28;20452;-64
2023/04/07 10:08:35;;;;;;;5.50;2.83;;;13.80;98.00;;;;;;5034569;28;20552;-65
2023/04/07 10:11:03;;;;;;;5.13;2.43;;;13.80;98.00;;;;;;5034527;28;20488;-64
2023/04/07 10:13:33;;;;;;;6.20;2.80;;;13.90;98.00;;;;;;5034347;28;20934;-64
2023/04/07 10:16:04;;;;;;;5.03;2.77;;;14.00;98.00;;;;;;5033889;28;20457;-64
2023/04/07 10:18:33;;;;;;;4.77;2.70;;;14.10;98.00;;;;;;5034365;28;20984;-65
2023/04/07 10:21:02;;;;;;;5.40;3.07;;;14.10;98.00;;;;;;5034374;28;20993;-64
2023/04/07 10:23:39;;;;;;;7.60;3.00;;;14.20;98.00;;;;;;5034212;28;20465;-64
2023/04/07 10:26:09;;;;;;;5.50;2.60;;;14.10;98.00;;;;;;5034317;28;20460;-64
2023/04/07 10:28:41;;;;;;;3.80;2.80;;;14.00;98.00;;;;;;5032951;28;20464;-64
2023/04/07 10:31:10;;;;;;;5.50;2.87;;;14.00;98.00;;;;;;5032860;28;20543;-64
2023/04/07 10:33:48;;;;;;;5.83;3.10;;;14.10;98.00;;;;;;5033964;28;20462;-63
2023/04/07 10:36:16;;;;;;;7.37;2.70;;;14.10;98.00;;;;;;5033927;28;20956;-66
2023/04/07 10:39:21;;;;;;;6.70;3.00;;;14.10;98.00;;;;;;5033859;28;20588;-63
2023/04/07 10:41:50;;;;;;;6.43;3.30;;;14.10;98.00;;;;;;5033677;28;20457;-63
2023/04/07 10:44:47;;;;;;;6.67;3.07;;;14.10;98.00;;;;;;5033860;28;20842;-65
2023/04/07 10:47:15;;;;;;;5.80;3.03;;;14.00;98.00;;;;;;5033769;28;20468;-64
2023/04/07 10:50:19;;;;;;;5.07;2.70;;;14.00;98.00;;;;;;5033581;28;20462;-64
2023/04/07 10:52:48;;;;;;;8.90;2.77;;;14.10;98.00;;;;;;5033770;28;20458;-63
2023/04/07 10:55:38;;;;;;;5.00;2.70;;;14.20;98.00;;;;;;5033689;28;20461;-63
2023/04/07 10:58:29;;;;;;;4.40;2.30;;;14.30;98.00;;;;;;5033293;28;20466;-65
2023/04/07 11:01:20;;;;;;;3.80;2.20;;;14.10;98.00;;;;;;5018025;28;20569;-64
2023/04/07 11:04:09;;;;;;;4.97;3.10;;;14.00;98.00;;;;;;5033111;28;20553;-64
2023/04/07 11:06:46;;;;;;;6.60;2.90;;;14.00;98.00;;;;;;5028699;28;20466;-64
2023/04/07 11:09:19;;;;;;;6.03;2.80;;;14.00;98.00;;;;;;5032255;28;20457;-63
2023/04/07 11:11:47;;;;;;;4.40;3.13;;;13.90;98.00;;;;;;5013253;28;21051;-64
2023/04/07 11:14:26;;;;;;;5.20;2.67;;;13.90;98.00;;;;;;5024748;28;20519;-64
2023/04/07 11:16:54;;;;;;;5.17;2.73;;;13.90;98.00;;;;;;5030937;28;20540;-64
2023/04/07 11:19:23;;;;;;;5.23;3.10;;;14.00;98.00;;;;;;5025162;28;20468;-63
2023/04/07 11:21:50;;;;;;;5.03;2.97;;;14.20;98.00;;;;;;5030340;28;20489;-63
2023/04/07 11:24:33;;;;;;;4.43;2.60;;;14.10;98.00;;;;;;5020801;28;20466;-63
2023/04/07 11:27:01;;;;;;;4.93;2.73;;;14.20;98.00;;;;;;5022793;28;20523;-64
2023/04/07 11:29:29;;;;;;;5.80;3.03;;;14.20;98.00;;;;;;5023430;28;20548;-63
2023/04/07 11:31:59;;;;;;;4.17;2.40;;;14.30;98.00;;;;;;5006200;28;20487;-65
2023/04/07 11:34:31;;;;;;;6.00;3.10;;;14.20;98.00;;;;;;5015576;28;20459;-64
2023/04/07 11:37:00;;;;;;;4.50;2.30;;;14.30;98.00;;;;;;5012172;28;20468;-64
2023/04/07 11:39:30;;;;;;;5.77;2.50;;;14.40;98.00;;;;;;5020829;28;20882;-64
2023/04/07 11:41:57;;;;;;;3.30;2.30;;;14.40;98.00;;;;;;5012942;28;20501;-64
2023/04/07 11:44:25;;;;;;;9.13;2.97;;;14.50;98.00;;;;;;5020699;28;20455;-65
2023/04/07 11:46:53;;;;;;;5.50;2.67;;;14.50;98.00;;;;;;5010237;28;20468;-65
2023/04/07 11:49:22;;;;;;;5.70;3.17;;;14.60;98.00;;;;;;5024115;28;20538;-64
2023/04/07 11:51:59;;;;;;;4.73;2.23;;;14.70;98.00;;;;;;5022996;28;20840;-63
2023/04/07 11:54:30;;;;;;;5.20;2.80;;;14.60;98.00;;;;;;5023976;28;20462;-63
2023/04/07 11:56:57;;;;;;;5.07;2.73;;;14.70;98.00;;;;;;5024621;28;20467;-64
2023/04/07 11:59:25;;;;;;;6.50;2.30;;;14.80;98.00;;;;;;5022913;28;20462;-65
2023/04/07 12:01:53;;;;;;;5.77;2.80;;;14.90;98.00;;;;;;5024945;28;20481;-65
2023/04/07 12:04:20;;;;;;;3.87;2.30;;;14.80;98.00;;;;;;5024022;28;20500;-64
2023/04/07 12:06:48;;;;;;;5.20;2.37;;;14.80;98.00;;;;;;5027464;28;20834;-65
2023/04/07 12:09:31;;;;;;;3.50;2.13;;;14.90;98.00;;;;;;5020830;28;20804;-64
2023/04/07 12:12:00;;;;;;;5.27;2.30;;;15.00;98.00;;;;;;5018714;28;20524;-65
2023/04/07 12:14:27;;;;;;;2.83;2.17;;;15.00;98.00;;;;;;5016385;28;20462;-65
2023/04/07 12:16:56;;;;;;;2.53;2.00;;;15.00;98.00;;;;;;5018315;28;20561;-64
2023/04/07 12:19:23;;;;;;;3.70;2.40;;;15.00;98.00;;;;;;5016753;28;20467;-64
2023/04/07 12:21:57;;;;;;;3.73;2.50;;;15.10;98.00;;;;;;5023815;28;20454;-65
2023/04/07 12:24:24;;;;;;;3.70;2.23;;;15.10;98.00;;;;;;5025606;28;20524;-64
2023/04/07 12:26:52;;;;;;;8.00;2.87;;;15.20;98.00;;;;;;5031903;28;20458;-65
2023/04/07 12:29:19;;;;;;;2.87;2.10;;;15.30;98.00;;;;;;5027471;28;20494;-62
2023/04/07 12:31:47;;;;;;;5.20;2.50;;;15.20;98.00;;;;;;5023516;28;20486;-63
2023/04/07 12:34:14;;;;;;;3.60;2.37;;;15.20;97.20;;;;;;5018610;28;20561;-62
2023/04/07 12:36:43;;;;;;;4.60;2.53;;;15.10;96.60;;;;;;5013672;28;20567;-65
2023/04/07 12:39:10;;;;;;;4.13;2.17;;;15.20;98.00;;;;;;5016711;28;20455;-65
2023/04/07 12:41:38;;;;;;;3.80;2.53;;;15.30;97.50;;;;;;4999343;28;20847;-66
2023/04/07 12:44:07;;;;;;;3.33;1.90;;;15.50;96.80;;;;;;5017552;28;20452;-64
2023/04/07 12:46:36;;;;;;;3.40;2.23;;;15.40;96.40;;;;;;5015757;28;20841;-64
2023/04/07 12:49:04;;;;;;;4.90;2.23;;;15.60;97.40;;;;;;5010506;28;20471;-71
2023/04/07 12:51:33;;;;;;;6.60;2.90;;;15.80;98.00;;;;;;5018259;28;20499;-67
2023/04/07 12:54:00;;;;;;;3.70;2.50;;;16.00;98.00;;;;;;5010947;28;20564;-68
2023/04/07 12:56:27;;;;;;;4.17;2.50;;;16.20;98.00;;;;;;5019893;28;20456;-66
2023/04/07 12:58:55;;;;;;;5.20;2.40;;;16.30;98.00;;;;;;5026197;28;20531;-65
2023/04/07 13:01:23;;;;;;;4.10;2.53;;;16.30;98.00;;;;;;5017898;28;20514;-64
2023/04/07 13:03:50;;;;;;;3.00;2.43;;;16.20;98.00;;;;;;5010999;28;20706;-65